Bw Havfrost — LAMR4 — position and weather

sailwx.info

Track history (hours):
 
Tides and Currents Weather Stations Pressure Air Temp Water Temp Dewpoint Dewpoint Depression Visibility Wind Speed Wind Dir Waves Ship Positions

Bw Havfrost

Last reported at 2015-Jun-16 20:33 UTC. Time now 2015-Jul-02 09:52 UTC.
Position S 28°22' E 032°48'.
Warning: this ship's position is 15 days out of date.

Length 205 m; draft 9.7 m.

Type: Ship (hazmat cat C). MMSI: 257631000.

Date/timePositionNaut miles runAvg speedWind from/ knotsBaromVisibWave heightAir tempDewpointWater temp
2015-Jun-16 20:33S 28°22' E 032°48'9 8.8
2015-Jun-16 19:33S 28°30' E 032°43'8 8.3
2015-Jun-16 18:33S 28°37' E 032°38'8 8.2
2015-Jun-16 17:33S 28°43' E 032°32'26 0.6
2015-Jun-14 18:33S 28°48' E 032°03'2 1.9
2015-Jun-14 17:34S 28°49' E 032°06'5 4.4
2015-Jun-14 16:32S 28°52' E 032°09'2 2.1
2015-Jun-14 15:30S 28°54' E 032°08'0 0.0
2015-Jun-14 14:31S 28°54' E 032°08'0 0.0
2015-Jun-14 13:31S 28°54' E 032°08'0 0.0
2015-Jun-14 12:32S 28°54' E 032°08'0 0.0
2015-Jun-14 11:31S 28°54' E 032°08'0 0.0
2015-Jun-14 10:31S 28°54' E 032°08'0 0.0
2015-Jun-14 09:07S 28°54' E 032°08'0 0.0
2015-Jun-14 08:32S 28°54' E 032°08'0 0.0
2015-Jun-14 07:28S 28°54' E 032°08'0 0.0
2015-Jun-14 06:10S 28°54' E 032°08'0 0.0
2015-Jun-14 05:22S 28°54' E 032°08'0 0.0
2015-Jun-14 04:31S 28°54' E 032°08'0 0.0
2015-Jun-14 03:31S 28°54' E 032°08'0 0.0
2015-Jun-14 02:31S 28°54' E 032°08'0 0.0
2015-Jun-14 01:32S 28°54' E 032°08'0 0.0
2015-Jun-14 00:32S 28°54' E 032°08'0 0.0
2015-Jun-13 23:31S 28°54' E 032°08'0 0.0
2015-Jun-13 22:31S 28°54' E 032°08'0 0.0
2015-Jun-13 21:31S 28°54' E 032°08'0 0.0
2015-Jun-13 20:31S 28°54' E 032°08'0 0.0
2015-Jun-13 19:10S 28°54' E 032°08'0 0.0
2015-Jun-13 16:25S 28°54' E 032°08'0 0.0
2015-Jun-13 15:14S 28°54' E 032°08'0 0.0
2015-Jun-13 14:32S 28°54' E 032°08'0 0.1
2015-Jun-13 13:31S 28°54' E 032°08'0 0.1
2015-Jun-13 12:31S 28°54' E 032°08'0 0.1
2015-Jun-13 11:31S 28°54' E 032°08'0 0.0
2015-Jun-13 08:19S 28°54' E 032°08'0 0.0
2015-Jun-13 07:31S 28°54' E 032°08'0 0.0
2015-Jun-13 06:31S 28°54' E 032°08'0 0.0
2015-Jun-13 05:19S 28°54' E 032°08'0 0.0
2015-Jun-13 04:29S 28°54' E 032°08'  
Track history (hours):
 
Tides and Currents Weather Stations Pressure Air Temp Water Temp Dewpoint Dewpoint Depression Visibility Wind Speed Wind Dir Waves Ship Positions

Bw Havfrost

Last reported at 2015-Jun-16 20:33 UTC. Time now 2015-Jul-02 09:52 UTC.
Position S 28°22' E 032°48'.
Warning: this ship's position is 15 days out of date.

Length 205 m; draft 9.7 m.

Type: Ship (hazmat cat C). MMSI: 257631000.

Date/timePositionNaut miles runAvg speedWind from/ knotsBaromVisibWave heightAir tempDewpointWater temp
2015-Jun-16 20:33S 28°22' E 032°48'9 8.8
2015-Jun-16 19:33S 28°30' E 032°43'8 8.3
2015-Jun-16 18:33S 28°37' E 032°38'8 8.2
2015-Jun-16 17:33S 28°43' E 032°32'26 0.6
2015-Jun-14 18:33S 28°48' E 032°03'2 1.9
2015-Jun-14 17:34S 28°49' E 032°06'5 4.4
2015-Jun-14 16:32S 28°52' E 032°09'2 2.1
2015-Jun-14 15:30S 28°54' E 032°08'0 0.0
2015-Jun-14 14:31S 28°54' E 032°08'0 0.0
2015-Jun-14 13:31S 28°54' E 032°08'0 0.0
2015-Jun-14 12:32S 28°54' E 032°08'0 0.0
2015-Jun-14 11:31S 28°54' E 032°08'0 0.0
2015-Jun-14 10:31S 28°54' E 032°08'0 0.0
2015-Jun-14 09:07S 28°54' E 032°08'0 0.0
2015-Jun-14 08:32S 28°54' E 032°08'0 0.0
2015-Jun-14 07:28S 28°54' E 032°08'0 0.0
2015-Jun-14 06:10S 28°54' E 032°08'0 0.0
2015-Jun-14 05:22S 28°54' E 032°08'0 0.0
2015-Jun-14 04:31S 28°54' E 032°08'0 0.0
2015-Jun-14 03:31S 28°54' E 032°08'0 0.0
2015-Jun-14 02:31S 28°54' E 032°08'0 0.0
2015-Jun-14 01:32S 28°54' E 032°08'0 0.0
2015-Jun-14 00:32S 28°54' E 032°08'0 0.0
2015-Jun-13 23:31S 28°54' E 032°08'0 0.0
2015-Jun-13 22:31S 28°54' E 032°08'0 0.0
2015-Jun-13 21:31S 28°54' E 032°08'0 0.0
2015-Jun-13 20:31S 28°54' E 032°08'0 0.0
2015-Jun-13 19:10S 28°54' E 032°08'0 0.0
2015-Jun-13 16:25S 28°54' E 032°08'0 0.0
2015-Jun-13 15:14S 28°54' E 032°08'0 0.0
2015-Jun-13 14:32S 28°54' E 032°08'0 0.1
2015-Jun-13 13:31S 28°54' E 032°08'0 0.1
2015-Jun-13 12:31S 28°54' E 032°08'0 0.1
2015-Jun-13 11:31S 28°54' E 032°08'0 0.0
2015-Jun-13 08:19S 28°54' E 032°08'0 0.0
2015-Jun-13 07:31S 28°54' E 032°08'0 0.0
2015-Jun-13 06:31S 28°54' E 032°08'0 0.0
2015-Jun-13 05:19S 28°54' E 032°08'0 0.0
2015-Jun-13 04:29S 28°54' E 032°08'  

Dump ship's entire track history